Hauptseite
METAR-TAF:

METAR-TAF

Flughäfen :

Blackpool Airport

Blackpool, England

Breite: 53-46N, Länge: 003-02W, Höhe: 10 m

Beobachtung

Neuester Wetterbericht von vor 29 Minuten, um 18:50 UTC
Wind 10 kt aus West
Temperatur 18°C
Luftfeuchtigkeit 94%
Luftdruck 1018 hPa
Sichtweite 10 km oder mehr
Aufgelockert bewölkt in der Höhe von 3900 ft

METAR: EGNH 191850Z 28010KT 9999 SCT039 18/17 Q1018

Zeit: 20:19 (19:19 UTC)

Prognose

Neuester Wetterbericht von vor 2 Stunden und 13 Minuten, um 17:06 UTC
Gültige Prognose vom 19 um 18 UTC bis 19 um 20 UTC
Wind 12 kt aus West
Sichtweite 10 km oder mehr
Aufgelockert bewölkt in der Höhe von 2000 ft

TAF: EGNH 191706Z 1918/1920 28012KT 9999 SCT020

Wetterbeobachtungen und Prognosen von mehr als 4000 Flughäfen (METAR und TAF Bericht).

Die verfügbaren Stationen werden durch gelbe und rote Markierungen auf der Karte dargestellt.

Führen Sie die Maus auf sie, um den Namen der Station zu sehen.

Darauf klicken, um die Beobachtung von Wetterbeobachtungen und Prognosen zu sehen.

Um die Karte zu ändern : klicken Sie auf den grünen Tasten mit einem schwarzen Kreuz Zum Vergrößern, auf den grünen Button mit einem Gedankenstrich zu verkleinern, oder auf die grünen Pfeile für benachbarte Karten.


METAR-TAF: